ポートオブスペイン の空港の天気 - METARとTAF

ピアルコ国際空港(ポートオブスペイン) ( TTPP / POS ) - トリニダード・トバゴ ポートオブスペイン (トリニダード島)
飛行場実況気象(Metar)
観測時間04/25 10:00 AST (04/25 14:00 UTC)
風向・風速東 5m/s
視程10km以上
天気現象周辺でしゅう雨
全天の4割程度の雲 雲底高度 610m
気温30℃
湿度62%
気圧1015hPa
METARTTPP 251400Z 10010KT 9999 VCSH SCT020 30/22 Q1015 NOSIG RMK VCSH NE
過去の天気等 Google飛行場航空写真 Wunderground天気予報

過去48時間のMETAR

飛行場予報(TAF)
発表時間: 4/25 06:00 AST (4/25 10:00 UTC)
予報対象時間: 25日8時 AST ~ 26日8時 AST
風向・風速東南東 8m/s
視程10km以上
全天の4割程度の雲 雲底高度 550m
25日8時 AST ~ 25日17時 AST に一時的に
視程7,000m
天気現象周辺でしゅう雨 しゅう雨
全天の4割程度の雲 雲底高度 490m
全天の4割程度の雲 雲底高度 1,100m
25日19時 AST ~ 25日21時 AST に徐々に
風向・風速東 4m/s
少しの雲 雲底高度 490m
全天の4割程度の雲 雲底高度 1,160m
26日4時 AST ~ 26日8時 AST に 確率 30% で一時的に
視程8,000m
天気現象周辺でしゅう雨 しゅう雨
全天の4割程度の雲 雲底高度 490m
全天の4割程度の雲 雲底高度 1,100m
26日6時 AST ~ 26日8時 AST に徐々に
風向・風速東 5m/s
全天の4割程度の雲 雲底高度 490m
TAF TTPP 251000Z 2512/2612 11015KT 9999 SCT018
TEMPO 2512/2521 7000 VCSH SHRA SCT016 SCT036
BECMG 2523/2601 10007KT FEW016 SCT038
PROB30 TEMPO 2608/2612 8000 VCSH SHRA SCT016 SCT036
BECMG 2610/2612 10010KT SCT016